sensor_id;sensor_type;location;lat;lon;timestamp;P1;durP1;ratioP1;P2;durP2;ratioP2
54307;SDS011;40208;39.778;2.710;2022-09-09T00:00:06;6.53;;;2.50;;
54307;SDS011;40208;39.778;2.710;2022-09-09T00:03:18;9.68;;;2.08;;
54307;SDS011;40208;39.778;2.710;2022-09-09T00:06:06;11.23;;;2.50;;
54307;SDS011;40208;39.778;2.710;2022-09-09T00:09:10;9.02;;;2.53;;
54307;SDS011;40208;39.778;2.710;2022-09-09T00:12:02;5.53;;;2.25;;
54307;SDS011;40208;39.778;2.710;2022-09-09T00:23:53;5.03;;;2.03;;
54307;SDS011;40208;39.778;2.710;2022-09-09T00:26:42;4.72;;;2.08;;
54307;SDS011;40208;39.778;2.710;2022-09-09T00:32:21;7.88;;;2.13;;
54307;SDS011;40208;39.778;2.710;2022-09-09T00:37:56;6.35;;;2.30;;
54307;SDS011;40208;39.778;2.710;2022-09-09T00:40:52;6.80;;;2.28;;
54307;SDS011;40208;39.778;2.710;2022-09-09T00:44:00;7.00;;;1.95;;
54307;SDS011;40208;39.778;2.710;2022-09-09T00:47:07;14.10;;;2.25;;
54307;SDS011;40208;39.778;2.710;2022-09-09T00:58:47;4.85;;;2.45;;
54307;SDS011;40208;39.778;2.710;2022-09-09T01:01:42;7.78;;;2.30;;
54307;SDS011;40208;39.778;2.710;2022-09-09T01:04:29;10.25;;;2.50;;
54307;SDS011;40208;39.778;2.710;2022-09-09T01:07:20;9.50;;;2.00;;
54307;SDS011;40208;39.778;2.710;2022-09-09T01:10:11;7.13;;;1.73;;
54307;SDS011;40208;39.778;2.710;2022-09-09T01:13:12;4.82;;;1.70;;
54307;SDS011;40208;39.778;2.710;2022-09-09T01:16:04;6.38;;;1.80;;
54307;SDS011;40208;39.778;2.710;2022-09-09T01:18:53;5.68;;;1.90;;
54307;SDS011;40208;39.778;2.710;2022-09-09T01:21:50;7.00;;;1.95;;
54307;SDS011;40208;39.778;2.710;2022-09-09T01:25:01;5.75;;;2.85;;
54307;SDS011;40208;39.778;2.710;2022-09-09T01:27:46;6.13;;;2.28;;
54307;SDS011;40208;39.778;2.710;2022-09-09T01:30:37;5.43;;;2.00;;
54307;SDS011;40208;39.778;2.710;2022-09-09T01:33:23;5.30;;;2.17;;
54307;SDS011;40208;39.778;2.710;2022-09-09T01:38:56;6.05;;;2.83;;
54307;SDS011;40208;39.778;2.710;2022-09-09T01:41:41;7.53;;;2.90;;
54307;SDS011;40208;39.778;2.710;2022-09-09T01:44:26;8.02;;;2.60;;
54307;SDS011;40208;39.778;2.710;2022-09-09T01:47:12;8.63;;;3.22;;
54307;SDS011;40208;39.778;2.710;2022-09-09T01:49:58;7.72;;;2.13;;
54307;SDS011;40208;39.778;2.710;2022-09-09T01:52:45;6.57;;;2.20;;
54307;SDS011;40208;39.778;2.710;2022-09-09T01:55:44;10.77;;;2.20;;
54307;SDS011;40208;39.778;2.710;2022-09-09T01:58:49;5.38;;;2.00;;
54307;SDS011;40208;39.778;2.710;2022-09-09T02:02:08;5.85;;;1.80;;
54307;SDS011;40208;39.778;2.710;2022-09-09T02:04:54;3.72;;;1.83;;
54307;SDS011;40208;39.778;2.710;2022-09-09T02:07:47;6.38;;;1.70;;
54307;SDS011;40208;39.778;2.710;2022-09-09T02:10:45;9.43;;;2.47;;
54307;SDS011;40208;39.778;2.710;2022-09-09T02:13:31;3.70;;;2.00;;
54307;SDS011;40208;39.778;2.710;2022-09-09T02:16:30;6.40;;;1.90;;
54307;SDS011;40208;39.778;2.710;2022-09-09T02:19:20;6.32;;;2.17;;
54307;SDS011;40208;39.778;2.710;2022-09-09T02:22:11;13.75;;;1.92;;
54307;SDS011;40208;39.778;2.710;2022-09-09T02:24:56;6.75;;;2.75;;
54307;SDS011;40208;39.778;2.710;2022-09-09T02:27:43;4.40;;;1.90;;
54307;SDS011;40208;39.778;2.710;2022-09-09T02:30:31;3.03;;;1.63;;
54307;SDS011;40208;39.778;2.710;2022-09-09T02:33:18;5.60;;;2.20;;
54307;SDS011;40208;39.778;2.710;2022-09-09T02:36:03;7.30;;;2.10;;
54307;SDS011;40208;39.778;2.710;2022-09-09T02:38:52;4.35;;;1.80;;
54307;SDS011;40208;39.778;2.710;2022-09-09T02:41:41;9.30;;;2.20;;
54307;SDS011;40208;39.778;2.710;2022-09-09T02:44:26;7.07;;;2.22;;
54307;SDS011;40208;39.778;2.710;2022-09-09T02:56:04;4.55;;;2.10;;
54307;SDS011;40208;39.778;2.710;2022-09-09T02:58:53;3.70;;;1.90;;
54307;SDS011;40208;39.778;2.710;2022-09-09T03:01:38;7.43;;;2.00;;
54307;SDS011;40208;39.778;2.710;2022-09-09T03:04:24;3.63;;;1.80;;
54307;SDS011;40208;39.778;2.710;2022-09-09T03:07:09;6.28;;;2.00;;
54307;SDS011;40208;39.778;2.710;2022-09-09T03:09:56;4.65;;;1.83;;
54307;SDS011;40208;39.778;2.710;2022-09-09T03:12:42;5.38;;;1.67;;
54307;SDS011;40208;39.778;2.710;2022-09-09T03:15:27;3.97;;;1.92;;
54307;SDS011;40208;39.778;2.710;2022-09-09T03:18:14;7.97;;;2.10;;
54307;SDS011;40208;39.778;2.710;2022-09-09T03:20:59;4.47;;;1.85;;
54307;SDS011;40208;39.778;2.710;2022-09-09T03:23:43;5.35;;;2.10;;
54307;SDS011;40208;39.778;2.710;2022-09-09T03:26:29;8.85;;;1.90;;
54307;SDS011;40208;39.778;2.710;2022-09-09T03:29:14;6.55;;;1.75;;
54307;SDS011;40208;39.778;2.710;2022-09-09T03:31:59;3.95;;;1.75;;
54307;SDS011;40208;39.778;2.710;2022-09-09T03:34:44;3.53;;;1.70;;
54307;SDS011;40208;39.778;2.710;2022-09-09T03:37:31;6.05;;;1.85;;
54307;SDS011;40208;39.778;2.710;2022-09-09T03:40:16;6.85;;;2.13;;
54307;SDS011;40208;39.778;2.710;2022-09-09T03:43:02;5.90;;;1.73;;
54307;SDS011;40208;39.778;2.710;2022-09-09T03:45:47;5.60;;;1.92;;
54307;SDS011;40208;39.778;2.710;2022-09-09T03:48:32;4.03;;;2.33;;
54307;SDS011;40208;39.778;2.710;2022-09-09T03:51:17;5.65;;;2.22;;
54307;SDS011;40208;39.778;2.710;2022-09-09T03:54:02;5.80;;;2.30;;
54307;SDS011;40208;39.778;2.710;2022-09-09T03:56:49;6.07;;;2.42;;
54307;SDS011;40208;39.778;2.710;2022-09-09T03:59:34;5.18;;;1.98;;
54307;SDS011;40208;39.778;2.710;2022-09-09T04:02:19;7.70;;;1.80;;
54307;SDS011;40208;39.778;2.710;2022-09-09T04:05:04;2.25;;;1.48;;
54307;SDS011;40208;39.778;2.710;2022-09-09T04:07:51;5.75;;;1.73;;
54307;SDS011;40208;39.778;2.710;2022-09-09T04:10:36;6.97;;;1.67;;
54307;SDS011;40208;39.778;2.710;2022-09-09T04:13:21;6.00;;;2.30;;
54307;SDS011;40208;39.778;2.710;2022-09-09T04:16:06;6.28;;;2.50;;
54307;SDS011;40208;39.778;2.710;2022-09-09T04:18:52;8.38;;;2.60;;
54307;SDS011;40208;39.778;2.710;2022-09-09T04:21:37;5.03;;;1.88;;
54307;SDS011;40208;39.778;2.710;2022-09-09T04:24:23;5.90;;;1.65;;
54307;SDS011;40208;39.778;2.710;2022-09-09T04:27:08;4.93;;;1.83;;
54307;SDS011;40208;39.778;2.710;2022-09-09T04:29:53;3.92;;;1.80;;
54307;SDS011;40208;39.778;2.710;2022-09-09T04:32:39;11.27;;;2.10;;
54307;SDS011;40208;39.778;2.710;2022-09-09T04:35:24;5.10;;;1.70;;
54307;SDS011;40208;39.778;2.710;2022-09-09T04:38:09;2.35;;;1.65;;
54307;SDS011;40208;39.778;2.710;2022-09-09T04:40:54;5.43;;;1.50;;
54307;SDS011;40208;39.778;2.710;2022-09-09T04:43:39;5.97;;;1.70;;
54307;SDS011;40208;39.778;2.710;2022-09-09T04:46:23;4.90;;;2.13;;
54307;SDS011;40208;39.778;2.710;2022-09-09T04:49:08;6.07;;;1.90;;
54307;SDS011;40208;39.778;2.710;2022-09-09T04:51:53;7.40;;;1.95;;
54307;SDS011;40208;39.778;2.710;2022-09-09T04:54:38;3.42;;;1.40;;
54307;SDS011;40208;39.778;2.710;2022-09-09T04:57:23;5.47;;;1.70;;
54307;SDS011;40208;39.778;2.710;2022-09-09T05:00:08;5.82;;;2.03;;
54307;SDS011;40208;39.778;2.710;2022-09-09T05:02:54;7.93;;;2.13;;
54307;SDS011;40208;39.778;2.710;2022-09-09T05:05:39;6.53;;;1.90;;
54307;SDS011;40208;39.778;2.710;2022-09-09T05:08:24;8.77;;;1.80;;
54307;SDS011;40208;39.778;2.710;2022-09-09T05:14:00;7.75;;;1.95;;
54307;SDS011;40208;39.778;2.710;2022-09-09T05:16:45;5.13;;;2.03;;
54307;SDS011;40208;39.778;2.710;2022-09-09T05:19:31;6.95;;;2.20;;
54307;SDS011;40208;39.778;2.710;2022-09-09T05:22:20;8.38;;;1.80;;
54307;SDS011;40208;39.778;2.710;2022-09-09T05:25:05;8.23;;;1.90;;
54307;SDS011;40208;39.778;2.710;2022-09-09T05:27:52;7.47;;;2.50;;
54307;SDS011;40208;39.778;2.710;2022-09-09T05:30:37;4.65;;;1.73;;
54307;SDS011;40208;39.778;2.710;2022-09-09T05:33:23;6.28;;;1.85;;
54307;SDS011;40208;39.778;2.710;2022-09-09T05:36:09;8.73;;;1.77;;
54307;SDS011;40208;39.778;2.710;2022-09-09T05:38:59;6.15;;;1.92;;
54307;SDS011;40208;39.778;2.710;2022-09-09T05:41:45;8.80;;;2.20;;
54307;SDS011;40208;39.778;2.710;2022-09-09T05:44:30;7.05;;;2.45;;
54307;SDS011;40208;39.778;2.710;2022-09-09T05:47:15;12.85;;;2.22;;
54307;SDS011;40208;39.778;2.710;2022-09-09T05:50:00;15.88;;;2.72;;
54307;SDS011;40208;39.778;2.710;2022-09-09T05:52:45;11.45;;;2.35;;
54307;SDS011;40208;39.778;2.710;2022-09-09T05:55:30;6.45;;;2.50;;
54307;SDS011;40208;39.778;2.710;2022-09-09T05:58:15;10.50;;;2.50;;
54307;SDS011;40208;39.778;2.710;2022-09-09T06:03:50;12.85;;;2.67;;
54307;SDS011;40208;39.778;2.710;2022-09-09T06:06:36;13.45;;;2.13;;
54307;SDS011;40208;39.778;2.710;2022-09-09T06:09:23;9.68;;;2.13;;
54307;SDS011;40208;39.778;2.710;2022-09-09T06:12:08;9.43;;;2.47;;
54307;SDS011;40208;39.778;2.710;2022-09-09T06:14:53;10.73;;;2.30;;
54307;SDS011;40208;39.778;2.710;2022-09-09T06:17:37;8.02;;;2.28;;
54307;SDS011;40208;39.778;2.710;2022-09-09T06:20:23;11.27;;;2.17;;
54307;SDS011;40208;39.778;2.710;2022-09-09T06:23:09;6.43;;;2.22;;
54307;SDS011;40208;39.778;2.710;2022-09-09T06:29:09;18.50;;;2.67;;
54307;SDS011;40208;39.778;2.710;2022-09-09T06:31:54;11.88;;;5.00;;
54307;SDS011;40208;39.778;2.710;2022-09-09T06:34:39;13.88;;;5.00;;
54307;SDS011;40208;39.778;2.710;2022-09-09T06:37:24;18.25;;;4.68;;
54307;SDS011;40208;39.778;2.710;2022-09-09T06:40:11;21.67;;;8.63;;
54307;SDS011;40208;39.778;2.710;2022-09-09T06:42:59;14.30;;;6.60;;
54307;SDS011;40208;39.778;2.710;2022-09-09T06:45:52;14.15;;;4.97;;
54307;SDS011;40208;39.778;2.710;2022-09-09T06:48:57;9.65;;;3.92;;
54307;SDS011;40208;39.778;2.710;2022-09-09T06:51:43;9.05;;;3.63;;
54307;SDS011;40208;39.778;2.710;2022-09-09T06:54:28;9.40;;;3.33;;
54307;SDS011;40208;39.778;2.710;2022-09-09T06:57:13;10.80;;;3.40;;
54307;SDS011;40208;39.778;2.710;2022-09-09T06:59:58;18.05;;;3.97;;
54307;SDS011;40208;39.778;2.710;2022-09-09T07:02:43;9.10;;;4.03;;
54307;SDS011;40208;39.778;2.710;2022-09-09T07:05:28;20.70;;;4.45;;
54307;SDS011;40208;39.778;2.710;2022-09-09T07:08:13;19.85;;;4.13;;
54307;SDS011;40208;39.778;2.710;2022-09-09T07:11:02;8.45;;;3.40;;
54307;SDS011;40208;39.778;2.710;2022-09-09T07:13:51;16.80;;;3.10;;
54307;SDS011;40208;39.778;2.710;2022-09-09T07:16:35;12.27;;;3.47;;
54307;SDS011;40208;39.778;2.710;2022-09-09T07:19:21;20.60;;;3.83;;
54307;SDS011;40208;39.778;2.710;2022-09-09T07:22:06;9.18;;;3.28;;
54307;SDS011;40208;39.778;2.710;2022-09-09T07:24:50;10.95;;;3.22;;
54307;SDS011;40208;39.778;2.710;2022-09-09T07:27:35;6.60;;;2.25;;
54307;SDS011;40208;39.778;2.710;2022-09-09T07:30:20;7.82;;;2.42;;
54307;SDS011;40208;39.778;2.710;2022-09-09T07:33:05;9.85;;;2.67;;
54307;SDS011;40208;39.778;2.710;2022-09-09T07:35:50;6.05;;;2.05;;
54307;SDS011;40208;39.778;2.710;2022-09-09T07:38:43;10.65;;;2.45;;
54307;SDS011;40208;39.778;2.710;2022-09-09T07:41:37;14.20;;;2.75;;
54307;SDS011;40208;39.778;2.710;2022-09-09T07:44:24;8.95;;;2.85;;
54307;SDS011;40208;39.778;2.710;2022-09-09T07:47:09;4.28;;;2.25;;
54307;SDS011;40208;39.778;2.710;2022-09-09T07:49:54;7.70;;;2.50;;
54307;SDS011;40208;39.778;2.710;2022-09-09T07:52:39;5.00;;;2.35;;
54307;SDS011;40208;39.778;2.710;2022-09-09T07:55:24;8.25;;;2.20;;
54307;SDS011;40208;39.778;2.710;2022-09-09T07:58:09;7.30;;;1.95;;
54307;SDS011;40208;39.778;2.710;2022-09-09T08:00:54;9.90;;;2.67;;
54307;SDS011;40208;39.778;2.710;2022-09-09T08:03:39;13.07;;;3.10;;
54307;SDS011;40208;39.778;2.710;2022-09-09T08:06:24;12.45;;;2.35;;
54307;SDS011;40208;39.778;2.710;2022-09-09T08:09:10;10.13;;;2.40;;
54307;SDS011;40208;39.778;2.710;2022-09-09T08:11:56;9.40;;;2.53;;
54307;SDS011;40208;39.778;2.710;2022-09-09T08:14:40;6.82;;;2.33;;
54307;SDS011;40208;39.778;2.710;2022-09-09T08:17:25;12.98;;;2.00;;
54307;SDS011;40208;39.778;2.710;2022-09-09T08:20:10;8.02;;;1.73;;
54307;SDS011;40208;39.778;2.710;2022-09-09T08:22:55;6.32;;;2.00;;
54307;SDS011;40208;39.778;2.710;2022-09-09T08:25:39;9.20;;;2.55;;
54307;SDS011;40208;39.778;2.710;2022-09-09T08:28:24;9.55;;;2.15;;
54307;SDS011;40208;39.778;2.710;2022-09-09T08:31:13;7.82;;;2.15;;
54307;SDS011;40208;39.778;2.710;2022-09-09T08:34:08;5.65;;;1.90;;
54307;SDS011;40208;39.778;2.710;2022-09-09T08:36:53;6.93;;;2.10;;
54307;SDS011;40208;39.778;2.710;2022-09-09T08:39:39;11.50;;;2.38;;
54307;SDS011;40208;39.778;2.710;2022-09-09T08:42:27;8.63;;;2.00;;
54307;SDS011;40208;39.778;2.710;2022-09-09T08:45:50;5.75;;;2.03;;
54307;SDS011;40208;39.778;2.710;2022-09-09T08:48:53;11.35;;;2.60;;
54307;SDS011;40208;39.778;2.710;2022-09-09T08:51:43;8.05;;;2.60;;
54307;SDS011;40208;39.778;2.710;2022-09-09T08:54:28;11.05;;;2.63;;
54307;SDS011;40208;39.778;2.710;2022-09-09T08:57:27;7.38;;;2.20;;
54307;SDS011;40208;39.778;2.710;2022-09-09T09:00:15;8.15;;;2.33;;
54307;SDS011;40208;39.778;2.710;2022-09-09T09:12:31;5.43;;;1.85;;
54307;SDS011;40208;39.778;2.710;2022-09-09T09:15:26;8.73;;;2.30;;
54307;SDS011;40208;39.778;2.710;2022-09-09T09:18:14;9.90;;;2.47;;
54307;SDS011;40208;39.778;2.710;2022-09-09T09:23:56;9.05;;;2.47;;
54307;SDS011;40208;39.778;2.710;2022-09-09T09:26:45;10.50;;;2.42;;
54307;SDS011;40208;39.778;2.710;2022-09-09T09:29:30;7.55;;;2.05;;
54307;SDS011;40208;39.778;2.710;2022-09-09T09:32:16;6.88;;;1.98;;
54307;SDS011;40208;39.778;2.710;2022-09-09T09:37:54;3.63;;;1.85;;
54307;SDS011;40208;39.778;2.710;2022-09-09T09:40:47;3.40;;;1.67;;
54307;SDS011;40208;39.778;2.710;2022-09-09T09:43:35;7.75;;;2.13;;
54307;SDS011;40208;39.778;2.710;2022-09-09T09:46:22;9.23;;;2.22;;
54307;SDS011;40208;39.778;2.710;2022-09-09T09:49:09;5.57;;;1.75;;
54307;SDS011;40208;39.778;2.710;2022-09-09T09:51:54;8.52;;;2.72;;
54307;SDS011;40208;39.778;2.710;2022-09-09T09:54:46;7.30;;;2.35;;
54307;SDS011;40208;39.778;2.710;2022-09-09T09:57:31;10.60;;;2.53;;
54307;SDS011;40208;39.778;2.710;2022-09-09T10:00:18;5.13;;;1.83;;
54307;SDS011;40208;39.778;2.710;2022-09-09T10:03:19;6.45;;;1.77;;
54307;SDS011;40208;39.778;2.710;2022-09-09T10:06:07;7.20;;;2.00;;
54307;SDS011;40208;39.778;2.710;2022-09-09T10:08:52;6.25;;;1.80;;
54307;SDS011;40208;39.778;2.710;2022-09-09T10:14:52;7.68;;;1.92;;
54307;SDS011;40208;39.778;2.710;2022-09-09T10:18:05;6.80;;;2.20;;
54307;SDS011;40208;39.778;2.710;2022-09-09T10:30:24;11.65;;;3.35;;
54307;SDS011;40208;39.778;2.710;2022-09-09T10:36:47;12.13;;;2.78;;
54307;SDS011;40208;39.778;2.710;2022-09-09T10:39:37;11.73;;;3.22;;
54307;SDS011;40208;39.778;2.710;2022-09-09T10:42:26;14.35;;;4.13;;
54307;SDS011;40208;39.778;2.710;2022-09-09T10:45:20;7.45;;;1.98;;
54307;SDS011;40208;39.778;2.710;2022-09-09T10:48:28;14.43;;;3.72;;
54307;SDS011;40208;39.778;2.710;2022-09-09T11:00:26;8.30;;;3.00;;
54307;SDS011;40208;39.778;2.710;2022-09-09T11:03:23;12.77;;;4.03;;
54307;SDS011;40208;39.778;2.710;2022-09-09T11:06:18;17.60;;;3.63;;
54307;SDS011;40208;39.778;2.710;2022-09-09T11:09:05;7.85;;;2.22;;
54307;SDS011;40208;39.778;2.710;2022-09-09T11:11:54;3.75;;;1.60;;
54307;SDS011;40208;39.778;2.710;2022-09-09T11:14:48;10.38;;;1.60;;
54307;SDS011;40208;39.778;2.710;2022-09-09T11:17:43;6.45;;;1.50;;
54307;SDS011;40208;39.778;2.710;2022-09-09T11:20:33;7.97;;;2.38;;
54307;SDS011;40208;39.778;2.710;2022-09-09T11:23:21;7.82;;;1.58;;
54307;SDS011;40208;39.778;2.710;2022-09-09T11:26:18;7.25;;;2.55;;
54307;SDS011;40208;39.778;2.710;2022-09-09T11:29:27;4.05;;;1.50;;
54307;SDS011;40208;39.778;2.710;2022-09-09T11:38:45;7.53;;;1.63;;
54307;SDS011;40208;39.778;2.710;2022-09-09T11:41:34;5.35;;;1.23;;
54307;SDS011;40208;39.778;2.710;2022-09-09T11:44:26;6.35;;;1.70;;
54307;SDS011;40208;39.778;2.710;2022-09-09T11:47:19;5.78;;;1.67;;
54307;SDS011;40208;39.778;2.710;2022-09-09T11:53:17;6.53;;;1.63;;
54307;SDS011;40208;39.778;2.710;2022-09-09T11:56:11;4.47;;;2.05;;
54307;SDS011;40208;39.778;2.710;2022-09-09T12:01:54;5.88;;;1.50;;
54307;SDS011;40208;39.778;2.710;2022-09-09T12:07:53;9.27;;;2.00;;
54307;SDS011;40208;39.778;2.710;2022-09-09T12:10:52;4.28;;;1.63;;
54307;SDS011;40208;39.778;2.710;2022-09-09T12:13:40;5.25;;;1.50;;
54307;SDS011;40208;39.778;2.710;2022-09-09T12:16:36;6.15;;;1.45;;
54307;SDS011;40208;39.778;2.710;2022-09-09T12:19:22;5.80;;;1.70;;
54307;SDS011;40208;39.778;2.710;2022-09-09T12:22:09;3.92;;;1.50;;
54307;SDS011;40208;39.778;2.710;2022-09-09T12:34:17;8.65;;;1.67;;
54307;SDS011;40208;39.778;2.710;2022-09-09T12:40:23;7.20;;;1.60;;
54307;SDS011;40208;39.778;2.710;2022-09-09T12:43:16;3.72;;;1.15;;
54307;SDS011;40208;39.778;2.710;2022-09-09T12:46:09;7.80;;;1.50;;
54307;SDS011;40208;39.778;2.710;2022-09-09T12:49:20;8.40;;;1.65;;
54307;SDS011;40208;39.778;2.710;2022-09-09T12:52:24;3.97;;;1.40;;
54307;SDS011;40208;39.778;2.710;2022-09-09T12:55:18;6.30;;;1.42;;
54307;SDS011;40208;39.778;2.710;2022-09-09T12:58:11;8.23;;;2.10;;
54307;SDS011;40208;39.778;2.710;2022-09-09T13:01:02;5.07;;;1.30;;
54307;SDS011;40208;39.778;2.710;2022-09-09T13:03:49;5.13;;;1.80;;
54307;SDS011;40208;39.778;2.710;2022-09-09T13:06:34;5.10;;;1.23;;
54307;SDS011;40208;39.778;2.710;2022-09-09T13:09:18;5.00;;;1.73;;
54307;SDS011;40208;39.778;2.710;2022-09-09T13:12:04;6.90;;;1.45;;
54307;SDS011;40208;39.778;2.710;2022-09-09T13:14:54;4.18;;;1.30;;
54307;SDS011;40208;39.778;2.710;2022-09-09T13:17:40;9.27;;;2.28;;
54307;SDS011;40208;39.778;2.710;2022-09-09T13:20:25;6.63;;;1.35;;
54307;SDS011;40208;39.778;2.710;2022-09-09T13:23:11;7.95;;;1.70;;
54307;SDS011;40208;39.778;2.710;2022-09-09T13:25:57;5.53;;;1.60;;
54307;SDS011;40208;39.778;2.710;2022-09-09T13:31:32;6.75;;;1.35;;
54307;SDS011;40208;39.778;2.710;2022-09-09T13:34:38;5.50;;;1.30;;
54307;SDS011;40208;39.778;2.710;2022-09-09T13:40:18;2.95;;;1.15;;
54307;SDS011;40208;39.778;2.710;2022-09-09T13:43:10;4.40;;;1.50;;
54307;SDS011;40208;39.778;2.710;2022-09-09T13:52:02;4.85;;;1.20;;
54307;SDS011;40208;39.778;2.710;2022-09-09T13:55:01;7.18;;;1.67;;
54307;SDS011;40208;39.778;2.710;2022-09-09T13:57:55;4.80;;;1.83;;
54307;SDS011;40208;39.778;2.710;2022-09-09T14:00:40;5.57;;;1.50;;
54307;SDS011;40208;39.778;2.710;2022-09-09T14:03:25;5.38;;;1.48;;
54307;SDS011;40208;39.778;2.710;2022-09-09T14:06:10;2.85;;;1.25;;
54307;SDS011;40208;39.778;2.710;2022-09-09T14:08:55;6.75;;;1.83;;
54307;SDS011;40208;39.778;2.710;2022-09-09T14:11:40;7.50;;;1.55;;
54307;SDS011;40208;39.778;2.710;2022-09-09T14:14:25;5.47;;;1.52;;
54307;SDS011;40208;39.778;2.710;2022-09-09T14:17:10;5.53;;;1.20;;
54307;SDS011;40208;39.778;2.710;2022-09-09T14:19:55;6.00;;;1.60;;
54307;SDS011;40208;39.778;2.710;2022-09-09T14:22:41;5.85;;;1.67;;
54307;SDS011;40208;39.778;2.710;2022-09-09T14:25:26;6.30;;;1.42;;
54307;SDS011;40208;39.778;2.710;2022-09-09T14:28:11;4.40;;;1.20;;
54307;SDS011;40208;39.778;2.710;2022-09-09T14:31:00;6.43;;;1.90;;
54307;SDS011;40208;39.778;2.710;2022-09-09T14:33:46;3.67;;;1.38;;
54307;SDS011;40208;39.778;2.710;2022-09-09T14:36:31;3.50;;;1.75;;
54307;SDS011;40208;39.778;2.710;2022-09-09T14:39:16;4.60;;;1.63;;
54307;SDS011;40208;39.778;2.710;2022-09-09T14:42:00;4.72;;;0.90;;
54307;SDS011;40208;39.778;2.710;2022-09-09T14:44:46;3.28;;;1.40;;
54307;SDS011;40208;39.778;2.710;2022-09-09T14:47:32;9.02;;;1.50;;
54307;SDS011;40208;39.778;2.710;2022-09-09T14:50:17;7.20;;;1.50;;
54307;SDS011;40208;39.778;2.710;2022-09-09T14:53:03;3.25;;;1.50;;
54307;SDS011;40208;39.778;2.710;2022-09-09T14:55:48;6.55;;;1.55;;
54307;SDS011;40208;39.778;2.710;2022-09-09T14:58:33;4.22;;;1.70;;
54307;SDS011;40208;39.778;2.710;2022-09-09T15:01:19;9.30;;;1.48;;
54307;SDS011;40208;39.778;2.710;2022-09-09T15:04:04;10.68;;;1.33;;
54307;SDS011;40208;39.778;2.710;2022-09-09T15:06:50;3.90;;;1.00;;
54307;SDS011;40208;39.778;2.710;2022-09-09T15:09:37;6.82;;;1.65;;
54307;SDS011;40208;39.778;2.710;2022-09-09T15:12:22;4.85;;;1.52;;
54307;SDS011;40208;39.778;2.710;2022-09-09T15:15:08;4.35;;;1.48;;
54307;SDS011;40208;39.778;2.710;2022-09-09T15:17:53;9.23;;;2.00;;
54307;SDS011;40208;39.778;2.710;2022-09-09T15:20:37;11.40;;;1.50;;
54307;SDS011;40208;39.778;2.710;2022-09-09T15:23:22;6.07;;;1.40;;
54307;SDS011;40208;39.778;2.710;2022-09-09T15:26:08;3.15;;;1.27;;
54307;SDS011;40208;39.778;2.710;2022-09-09T15:28:53;6.90;;;1.67;;
54307;SDS011;40208;39.778;2.710;2022-09-09T15:31:39;3.38;;;1.20;;
54307;SDS011;40208;39.778;2.710;2022-09-09T15:34:24;7.78;;;1.77;;
54307;SDS011;40208;39.778;2.710;2022-09-09T15:37:10;5.68;;;1.30;;
54307;SDS011;40208;39.778;2.710;2022-09-09T15:39:58;5.25;;;1.35;;
54307;SDS011;40208;39.778;2.710;2022-09-09T15:42:44;5.15;;;1.35;;
54307;SDS011;40208;39.778;2.710;2022-09-09T15:45:29;4.30;;;1.35;;
54307;SDS011;40208;39.778;2.710;2022-09-09T15:48:15;5.93;;;1.27;;
54307;SDS011;40208;39.778;2.710;2022-09-09T15:51:03;7.93;;;1.65;;
54307;SDS011;40208;39.778;2.710;2022-09-09T15:53:52;7.10;;;1.20;;
54307;SDS011;40208;39.778;2.710;2022-09-09T15:56:41;8.77;;;2.28;;
54307;SDS011;40208;39.778;2.710;2022-09-09T15:59:27;7.68;;;2.67;;
54307;SDS011;40208;39.778;2.710;2022-09-09T16:02:13;3.75;;;1.45;;
54307;SDS011;40208;39.778;2.710;2022-09-09T16:04:58;5.82;;;1.58;;
54307;SDS011;40208;39.778;2.710;2022-09-09T16:07:43;7.15;;;1.63;;
54307;SDS011;40208;39.778;2.710;2022-09-09T16:10:29;6.30;;;1.50;;
54307;SDS011;40208;39.778;2.710;2022-09-09T16:13:15;8.40;;;1.70;;
54307;SDS011;40208;39.778;2.710;2022-09-09T16:16:00;7.35;;;1.45;;
54307;SDS011;40208;39.778;2.710;2022-09-09T16:18:46;5.40;;;1.75;;
54307;SDS011;40208;39.778;2.710;2022-09-09T16:21:36;6.72;;;1.58;;
54307;SDS011;40208;39.778;2.710;2022-09-09T16:24:23;4.53;;;1.60;;
54307;SDS011;40208;39.778;2.710;2022-09-09T16:27:08;3.53;;;1.10;;
54307;SDS011;40208;39.778;2.710;2022-09-09T16:29:53;15.27;;;1.50;;
54307;SDS011;40208;39.778;2.710;2022-09-09T16:32:37;5.18;;;1.50;;
54307;SDS011;40208;39.778;2.710;2022-09-09T16:35:22;4.55;;;1.30;;
54307;SDS011;40208;39.778;2.710;2022-09-09T16:38:07;7.07;;;1.10;;
54307;SDS011;40208;39.778;2.710;2022-09-09T16:40:58;9.25;;;1.92;;
54307;SDS011;40208;39.778;2.710;2022-09-09T16:43:43;5.30;;;1.48;;
54307;SDS011;40208;39.778;2.710;2022-09-09T16:46:29;4.70;;;1.52;;
54307;SDS011;40208;39.778;2.710;2022-09-09T16:49:15;5.50;;;1.33;;
54307;SDS011;40208;39.778;2.710;2022-09-09T16:52:00;3.75;;;1.40;;
54307;SDS011;40208;39.778;2.710;2022-09-09T16:54:45;13.27;;;2.95;;
54307;SDS011;40208;39.778;2.710;2022-09-09T16:57:30;19.00;;;9.88;;
54307;SDS011;40208;39.778;2.710;2022-09-09T17:00:15;9.27;;;3.33;;
54307;SDS011;40208;39.778;2.710;2022-09-09T17:03:03;10.15;;;3.50;;
54307;SDS011;40208;39.778;2.710;2022-09-09T17:05:48;8.63;;;1.92;;
54307;SDS011;40208;39.778;2.710;2022-09-09T17:08:33;8.18;;;2.30;;
54307;SDS011;40208;39.778;2.710;2022-09-09T17:11:18;5.70;;;2.20;;
54307;SDS011;40208;39.778;2.710;2022-09-09T17:14:03;13.20;;;3.65;;
54307;SDS011;40208;39.778;2.710;2022-09-09T17:16:49;8.18;;;2.92;;
54307;SDS011;40208;39.778;2.710;2022-09-09T17:19:34;8.70;;;3.40;;
54307;SDS011;40208;39.778;2.710;2022-09-09T17:22:19;7.93;;;3.47;;
54307;SDS011;40208;39.778;2.710;2022-09-09T17:25:04;11.95;;;3.05;;
54307;SDS011;40208;39.778;2.710;2022-09-09T17:27:49;6.38;;;2.03;;
54307;SDS011;40208;39.778;2.710;2022-09-09T17:30:34;7.13;;;2.20;;
54307;SDS011;40208;39.778;2.710;2022-09-09T17:33:20;6.63;;;1.98;;
54307;SDS011;40208;39.778;2.710;2022-09-09T17:36:13;8.40;;;1.90;;
54307;SDS011;40208;39.778;2.710;2022-09-09T17:39:03;8.50;;;2.75;;
54307;SDS011;40208;39.778;2.710;2022-09-09T17:41:49;8.25;;;2.38;;
54307;SDS011;40208;39.778;2.710;2022-09-09T17:44:34;9.55;;;5.00;;
54307;SDS011;40208;39.778;2.710;2022-09-09T17:47:19;8.27;;;5.60;;
54307;SDS011;40208;39.778;2.710;2022-09-09T17:50:04;5.57;;;1.85;;
54307;SDS011;40208;39.778;2.710;2022-09-09T17:52:50;4.13;;;1.20;;
54307;SDS011;40208;39.778;2.710;2022-09-09T17:55:35;4.13;;;1.33;;
54307;SDS011;40208;39.778;2.710;2022-09-09T17:58:20;8.93;;;4.55;;
54307;SDS011;40208;39.778;2.710;2022-09-09T18:01:06;2.75;;;1.30;;
54307;SDS011;40208;39.778;2.710;2022-09-09T18:03:59;4.88;;;1.73;;
54307;SDS011;40208;39.778;2.710;2022-09-09T18:06:47;6.43;;;1.65;;
54307;SDS011;40208;39.778;2.710;2022-09-09T18:09:34;4.95;;;1.60;;
54307;SDS011;40208;39.778;2.710;2022-09-09T18:12:18;7.00;;;2.53;;
54307;SDS011;40208;39.778;2.710;2022-09-09T18:15:03;13.75;;;6.95;;
54307;SDS011;40208;39.778;2.710;2022-09-09T18:17:49;20.23;;;13.73;;
54307;SDS011;40208;39.778;2.710;2022-09-09T18:20:33;28.35;;;18.38;;
54307;SDS011;40208;39.778;2.710;2022-09-09T18:23:18;47.03;;;27.80;;
54307;SDS011;40208;39.778;2.710;2022-09-09T18:26:07;43.17;;;26.30;;
54307;SDS011;40208;39.778;2.710;2022-09-09T18:28:55;18.85;;;7.82;;
54307;SDS011;40208;39.778;2.710;2022-09-09T18:31:41;11.77;;;6.03;;
54307;SDS011;40208;39.778;2.710;2022-09-09T18:34:26;28.38;;;16.80;;
54307;SDS011;40208;39.778;2.710;2022-09-09T18:37:12;24.60;;;17.55;;
54307;SDS011;40208;39.778;2.710;2022-09-09T18:39:56;20.58;;;8.38;;
54307;SDS011;40208;39.778;2.710;2022-09-09T18:42:42;18.60;;;10.15;;
54307;SDS011;40208;39.778;2.710;2022-09-09T18:45:33;35.42;;;21.27;;
54307;SDS011;40208;39.778;2.710;2022-09-09T18:48:21;23.13;;;14.65;;
54307;SDS011;40208;39.778;2.710;2022-09-09T18:51:06;8.82;;;4.03;;
54307;SDS011;40208;39.778;2.710;2022-09-09T18:53:54;22.50;;;15.48;;